createdAt,value
2018-02-11T00:00:48.398Z,36.30
2018-02-11T00:03:15.942Z,34.93
2018-02-11T00:05:44.632Z,34.20
2018-02-11T00:08:12.897Z,33.40
2018-02-11T00:10:40.457Z,35.97
2018-02-11T00:13:08.040Z,33.87
2018-02-11T00:15:35.580Z,36.23
2018-02-11T00:18:03.143Z,34.57
2018-02-11T00:20:30.686Z,34.73
2018-02-11T00:22:58.239Z,34.50
2018-02-11T00:25:26.546Z,35.90
2018-02-11T00:27:54.159Z,36.30
2018-02-11T00:30:21.686Z,33.53
2018-02-11T00:32:49.223Z,34.90
2018-02-11T00:35:16.793Z,32.80
2018-02-11T00:40:41.128Z,32.03
2018-02-11T00:43:08.646Z,34.83
2018-02-11T00:45:36.210Z,32.93
2018-02-11T00:48:03.768Z,34.03
2018-02-11T00:50:31.290Z,32.83
2018-02-11T00:52:58.824Z,34.23
2018-02-11T00:55:26.375Z,33.67
2018-02-11T00:57:54.039Z,33.83
2018-02-11T01:00:21.556Z,34.27
2018-02-11T01:02:49.081Z,33.83
2018-02-11T01:05:16.582Z,35.03
2018-02-11T01:07:44.086Z,36.00
2018-02-11T01:10:11.649Z,34.63
2018-02-11T01:12:39.168Z,33.60
2018-02-11T01:15:06.697Z,34.93
2018-02-11T01:17:34.987Z,36.00
2018-02-11T01:20:02.508Z,36.07
2018-02-11T01:22:30.012Z,36.27
2018-02-11T01:24:57.555Z,36.20
2018-02-11T01:27:25.063Z,36.00
2018-02-11T01:29:52.570Z,33.63
2018-02-11T01:32:20.843Z,34.07
2018-02-11T01:34:49.118Z,34.57
2018-02-11T01:37:17.391Z,33.03
2018-02-11T01:39:45.669Z,33.43
2018-02-11T01:42:13.984Z,33.33
2018-02-11T01:44:41.488Z,32.77
2018-02-11T01:47:09.010Z,33.00
2018-02-11T01:49:36.526Z,33.83
2018-02-11T01:52:04.822Z,34.37
2018-02-11T01:54:32.345Z,33.57
2018-02-11T01:56:59.860Z,32.50
2018-02-11T01:59:27.366Z,33.20
2018-02-11T02:01:55.652Z,34.37
2018-02-11T02:04:23.919Z,33.37
2018-02-11T02:06:52.194Z,32.63
2018-02-11T02:09:20.479Z,33.10
2018-02-11T02:11:48.750Z,34.17
2018-02-11T02:14:17.031Z,31.90
2018-02-11T02:16:45.318Z,34.10
2018-02-11T02:19:12.836Z,31.13
2018-02-11T02:21:40.342Z,33.50
2018-02-11T02:24:07.880Z,34.33
2018-02-11T02:26:36.155Z,33.73
2018-02-11T02:29:04.446Z,35.17
2018-02-11T02:31:32.734Z,33.03
2018-02-11T02:34:00.236Z,33.50
2018-02-11T02:36:27.750Z,31.07
2018-02-11T02:38:55.270Z,33.43
2018-02-11T02:41:22.824Z,32.17
2018-02-11T02:43:50.357Z,32.60
2018-02-11T02:46:17.903Z,32.77
2018-02-11T02:48:45.426Z,32.07
2018-02-11T02:51:12.937Z,33.57
2018-02-11T02:53:40.456Z,32.63
2018-02-11T02:56:07.979Z,34.43
2018-02-11T02:58:35.501Z,32.30
2018-02-11T03:01:03.065Z,32.97
2018-02-11T03:03:30.578Z,34.60
2018-02-11T03:05:58.853Z,34.03
2018-02-11T03:08:27.136Z,32.70
2018-02-11T03:10:55.410Z,32.20
2018-02-11T03:13:23.683Z,32.63
2018-02-11T03:15:51.980Z,32.73
2018-02-11T03:18:19.510Z,33.57
2018-02-11T03:20:47.021Z,34.07
2018-02-11T03:23:14.544Z,35.43
2018-02-11T03:25:42.072Z,34.13
2018-02-11T03:28:09.586Z,37.63
2018-02-11T03:30:37.115Z,34.93
2018-02-11T03:33:04.639Z,37.17
2018-02-11T03:35:32.142Z,37.03
2018-02-11T03:37:59.660Z,33.37
2018-02-11T03:40:27.169Z,34.17
2018-02-11T03:42:54.682Z,33.87
2018-02-11T03:45:22.212Z,34.30
2018-02-11T03:47:49.733Z,32.37
2018-02-11T03:50:17.254Z,34.40
2018-02-11T03:52:44.786Z,33.33
2018-02-11T03:55:12.319Z,34.57
2018-02-11T03:57:39.832Z,32.60
2018-02-11T04:00:07.357Z,34.33
2018-02-11T04:02:34.882Z,32.67
2018-02-11T04:05:02.404Z,35.50
2018-02-11T04:07:29.913Z,35.07
2018-02-11T04:09:57.434Z,35.60
2018-02-11T04:12:24.948Z,35.70
2018-02-11T04:14:52.479Z,33.27
2018-02-11T04:17:20.009Z,34.77
2018-02-11T04:19:47.524Z,35.13
2018-02-11T04:22:15.041Z,35.53
2018-02-11T04:24:43.340Z,33.97
2018-02-11T04:27:10.864Z,33.77
2018-02-11T04:29:38.387Z,34.40
2018-02-11T04:32:05.892Z,33.70
2018-02-11T04:34:34.167Z,32.80
2018-02-11T04:37:01.680Z,33.33
2018-02-11T04:39:29.976Z,33.07
2018-02-11T04:41:57.484Z,33.90
2018-02-11T04:44:25.007Z,33.83
2018-02-11T04:46:52.512Z,33.43
2018-02-11T04:49:20.032Z,32.33
2018-02-11T04:51:48.348Z,32.70
2018-02-11T04:54:15.855Z,33.90
2018-02-11T04:56:43.373Z,33.50
2018-02-11T04:59:10.891Z,32.87
2018-02-11T05:01:39.183Z,35.60
2018-02-11T05:04:06.684Z,35.30
2018-02-11T05:06:34.196Z,33.70
2018-02-11T05:09:01.722Z,35.33
2018-02-11T05:11:29.236Z,35.03
2018-02-11T05:13:56.804Z,35.57
2018-02-11T05:16:24.328Z,35.00
2018-02-11T05:18:52.636Z,34.57
2018-02-11T05:21:20.212Z,35.90
2018-02-11T05:23:47.804Z,35.47
2018-02-11T05:26:15.359Z,36.20
2018-02-11T05:28:42.904Z,37.03
2018-02-11T05:31:11.226Z,35.93
2018-02-11T05:33:38.772Z,36.70
2018-02-11T05:36:07.076Z,35.53
2018-02-11T05:38:34.594Z,37.10
2018-02-11T05:41:02.136Z,37.57
2018-02-11T05:43:29.707Z,35.10
2018-02-11T05:45:57.238Z,34.30
2018-02-11T05:48:24.798Z,36.67
2018-02-11T05:50:52.364Z,39.07
2018-02-11T05:53:19.901Z,36.30
2018-02-11T05:55:47.432Z,39.87
2018-02-11T05:58:15.028Z,37.50
2018-02-11T06:00:42.554Z,37.47
2018-02-11T06:03:10.104Z,36.87
2018-02-11T06:05:38.412Z,38.53
2018-02-11T06:08:05.971Z,37.10
2018-02-11T06:10:33.521Z,36.57
2018-02-11T06:13:01.100Z,35.20
2018-02-11T06:15:28.632Z,35.30
2018-02-11T06:17:56.172Z,38.13
2018-02-11T06:20:23.722Z,38.03
2018-02-11T06:22:52.026Z,38.77
2018-02-11T06:25:19.586Z,35.57
2018-02-11T06:27:47.130Z,35.77
2018-02-11T06:30:14.659Z,37.60
2018-02-11T06:32:42.179Z,38.17
2018-02-11T06:35:09.763Z,37.43
2018-02-11T06:37:37.430Z,39.20
2018-02-11T06:40:04.962Z,38.23
2018-02-11T06:42:32.526Z,39.07
2018-02-11T06:45:00.070Z,38.80
2018-02-11T06:47:27.627Z,38.00
2018-02-11T06:49:55.176Z,38.63
2018-02-11T06:52:22.716Z,39.13
2018-02-11T06:54:50.294Z,39.80
2018-02-11T06:57:18.642Z,40.60
2018-02-11T06:59:46.175Z,38.97
2018-02-11T07:02:13.734Z,39.87
2018-02-11T07:04:41.266Z,37.03
2018-02-11T07:07:08.782Z,41.23
2018-02-11T07:09:37.514Z,39.23
2018-02-11T07:12:05.059Z,39.47
2018-02-11T07:14:33.364Z,37.63
2018-02-11T07:17:00.901Z,38.80
2018-02-11T07:19:28.459Z,39.13
2018-02-11T07:21:55.991Z,42.30
2018-02-11T07:24:23.537Z,56.33
2018-02-11T07:26:51.098Z,64.03
2018-02-11T07:29:19.471Z,50.17
2018-02-11T07:31:47.009Z,66.57
2018-02-11T07:34:14.586Z,40.27
2018-02-11T07:36:42.119Z,40.50
2018-02-11T07:39:09.664Z,38.20
2018-02-11T07:41:37.231Z,38.83
2018-02-11T07:44:04.804Z,38.37
2018-02-11T07:46:33.113Z,38.00
2018-02-11T07:49:00.701Z,38.23
2018-02-11T07:51:29.009Z,39.47
2018-02-11T07:53:56.559Z,41.40
2018-02-11T07:56:24.101Z,37.77
2018-02-11T07:58:52.406Z,38.13
2018-02-11T08:01:21.211Z,39.10
2018-02-11T08:03:48.743Z,36.80
2018-02-11T08:06:16.292Z,38.27
2018-02-11T08:08:43.832Z,39.90
2018-02-11T08:11:12.152Z,34.00
2018-02-11T08:13:39.725Z,39.00
2018-02-11T08:16:07.243Z,37.57
2018-02-11T08:18:34.780Z,38.60
2018-02-11T08:21:02.314Z,39.80
2018-02-11T08:23:29.864Z,40.23
2018-02-11T08:25:57.426Z,38.97
2018-02-11T08:28:24.962Z,37.77
2018-02-11T08:30:52.494Z,38.40
2018-02-11T08:33:20.818Z,38.50
2018-02-11T08:35:48.380Z,36.37
2018-02-11T08:38:15.914Z,36.43
2018-02-11T08:40:43.462Z,35.30
2018-02-11T08:43:11.010Z,37.17
2018-02-11T08:45:38.535Z,35.80
2018-02-11T08:48:06.082Z,37.57
2018-02-11T08:50:33.614Z,36.67
2018-02-11T08:53:01.183Z,36.37
2018-02-11T08:55:28.740Z,38.43
2018-02-11T08:57:56.274Z,37.07
2018-02-11T09:00:23.816Z,36.27
2018-02-11T09:02:52.183Z,35.77
2018-02-11T09:05:19.764Z,35.97
2018-02-11T09:07:47.298Z,36.53
2018-02-11T09:10:14.841Z,35.57
2018-02-11T09:12:42.418Z,36.33
2018-02-11T09:15:09.952Z,37.33
2018-02-11T09:17:37.495Z,36.53
2018-02-11T09:20:05.032Z,33.50
2018-02-11T09:22:32.579Z,33.83
2018-02-11T09:25:00.148Z,33.70
2018-02-11T09:27:27.692Z,34.60
2018-02-11T09:29:55.990Z,34.07
2018-02-11T09:32:23.542Z,35.13
2018-02-11T09:34:51.093Z,34.97
2018-02-11T09:37:18.622Z,33.10
2018-02-11T09:39:46.173Z,33.43
2018-02-11T09:42:13.688Z,34.83
2018-02-11T09:44:41.194Z,34.17
2018-02-11T09:47:08.739Z,34.77
2018-02-11T09:49:36.270Z,31.27
2018-02-11T09:52:03.807Z,35.80
2018-02-11T09:54:32.110Z,35.43
2018-02-11T09:56:59.629Z,33.07
2018-02-11T09:59:27.166Z,33.37
2018-02-11T10:01:54.700Z,32.00
2018-02-11T10:04:22.256Z,32.63
2018-02-11T10:06:49.729Z,31.73
2018-02-11T10:09:17.236Z,33.33
2018-02-11T10:11:45.512Z,32.53
2018-02-11T10:14:13.788Z,29.07
2018-02-11T10:16:41.302Z,29.50
2018-02-11T10:19:08.830Z,29.80
2018-02-11T10:21:36.366Z,27.30
2018-02-11T10:24:03.908Z,26.43
2018-02-11T10:26:32.187Z,25.27
2018-02-11T10:28:59.687Z,27.83
2018-02-11T10:31:27.210Z,27.30
2018-02-11T10:33:55.494Z,29.00
2018-02-11T10:36:23.768Z,31.20
2018-02-11T10:38:52.046Z,30.37
2018-02-11T10:41:20.318Z,27.70
2018-02-11T10:43:48.601Z,27.93
2018-02-11T10:46:16.880Z,27.40
2018-02-11T10:48:45.167Z,26.13
2018-02-11T10:51:12.680Z,28.20
2018-02-11T10:53:40.220Z,27.20
2018-02-11T10:56:07.722Z,26.07
2018-02-11T10:58:35.998Z,27.03
2018-02-11T11:01:04.276Z,27.07
2018-02-11T11:03:32.554Z,26.43
2018-02-11T11:06:00.830Z,24.07
2018-02-11T11:08:29.172Z,24.60
2018-02-11T11:10:56.671Z,24.97
2018-02-11T11:13:24.935Z,23.17
2018-02-11T11:15:52.447Z,27.47
2018-02-11T11:18:19.951Z,27.87
2018-02-11T11:20:47.450Z,26.70
2018-02-11T11:23:14.992Z,25.70
2018-02-11T11:25:42.524Z,26.10
2018-02-11T11:28:10.102Z,27.33
2018-02-11T11:30:37.606Z,27.63
2018-02-11T11:33:05.119Z,26.77
2018-02-11T11:35:32.621Z,27.10
2018-02-11T11:38:00.132Z,27.00
2018-02-11T11:40:27.641Z,27.47
2018-02-11T11:42:55.150Z,25.30
2018-02-11T11:45:23.433Z,25.40
2018-02-11T11:47:50.963Z,24.90
2018-02-11T11:50:18.458Z,25.13
2018-02-11T11:52:45.986Z,25.90
2018-02-11T11:55:13.493Z,24.13
2018-02-11T11:57:41.027Z,25.37
2018-02-11T12:00:08.543Z,27.63
2018-02-11T12:02:36.050Z,27.10
2018-02-11T12:05:03.575Z,29.07
2018-02-11T12:07:31.122Z,44.77
2018-02-11T12:09:58.630Z,38.90
2018-02-11T12:12:26.144Z,30.03
2018-02-11T12:14:53.664Z,30.37
2018-02-11T12:17:21.180Z,39.00
2018-02-11T12:19:49.452Z,28.13
2018-02-11T12:22:17.772Z,25.63
2018-02-11T12:24:45.278Z,24.40
2018-02-11T12:27:12.772Z,25.10
2018-02-11T12:29:40.296Z,23.60
2018-02-11T12:32:07.837Z,24.60
2018-02-11T12:34:35.326Z,25.63
2018-02-11T12:37:02.864Z,24.90
2018-02-11T12:39:30.435Z,25.40
2018-02-11T12:41:57.954Z,24.77
2018-02-11T12:44:25.522Z,25.63
2018-02-11T12:46:53.033Z,25.53
2018-02-11T12:49:20.553Z,28.30
2018-02-11T12:51:48.124Z,25.47
2018-02-11T12:54:15.630Z,28.13
2018-02-11T12:56:43.144Z,24.30
2018-02-11T12:59:11.453Z,24.10
2018-02-11T13:01:39.001Z,22.57
2018-02-11T13:04:06.476Z,21.97
2018-02-11T13:06:34.016Z,22.23
2018-02-11T13:09:02.296Z,21.77
2018-02-11T13:11:30.588Z,21.80
2018-02-11T13:13:58.115Z,21.37
2018-02-11T13:16:25.657Z,21.37
2018-02-11T13:18:53.224Z,24.13
2018-02-11T13:21:20.766Z,19.70
2018-02-11T13:23:48.320Z,19.30
2018-02-11T13:26:15.881Z,19.67
2018-02-11T13:28:43.452Z,19.87
2018-02-11T13:31:10.980Z,18.70
2018-02-11T13:33:38.524Z,16.20
2018-02-11T13:36:06.079Z,16.40
2018-02-11T13:38:33.618Z,17.00
2018-02-11T13:41:01.955Z,18.50
2018-02-11T13:43:29.519Z,17.93
2018-02-11T13:45:57.069Z,19.00
2018-02-11T13:48:24.643Z,18.63
2018-02-11T13:50:52.217Z,20.13
2018-02-11T13:53:19.783Z,20.53
2018-02-11T13:55:48.105Z,18.47
2018-02-11T13:58:15.666Z,18.40
2018-02-11T14:00:43.232Z,19.67
2018-02-11T14:03:10.769Z,19.70
2018-02-11T14:05:38.315Z,19.93
2018-02-11T14:08:05.856Z,19.93
2018-02-11T14:10:33.364Z,20.73
2018-02-11T14:13:00.931Z,19.73
2018-02-11T14:15:28.480Z,19.30
2018-02-11T14:17:56.012Z,20.43
2018-02-11T14:20:24.320Z,21.53
2018-02-11T14:22:51.867Z,21.83
2018-02-11T14:25:19.426Z,20.23
2018-02-11T14:27:46.978Z,22.37
2018-02-11T14:30:14.516Z,22.00
2018-02-11T14:32:42.079Z,20.67
2018-02-11T14:35:09.698Z,21.27
2018-02-11T14:37:37.225Z,20.40
2018-02-11T14:40:04.759Z,20.43
2018-02-11T14:42:33.062Z,18.70
2018-02-11T14:45:00.604Z,19.70
2018-02-11T14:47:28.139Z,20.13
2018-02-11T14:49:55.686Z,21.20
2018-02-11T14:52:23.213Z,19.87
2018-02-11T14:54:50.735Z,22.00
2018-02-11T14:57:19.045Z,21.57
2018-02-11T14:59:46.571Z,21.27
2018-02-11T15:02:14.112Z,20.70
2018-02-11T15:04:41.657Z,18.37
2018-02-11T15:07:09.200Z,19.70
2018-02-11T15:09:36.729Z,21.97
2018-02-11T15:12:04.304Z,20.03
2018-02-11T15:14:31.836Z,24.97
2018-02-11T15:16:59.374Z,21.60
2018-02-11T15:19:26.927Z,22.40
2018-02-11T15:21:54.457Z,21.27
2018-02-11T15:24:21.987Z,21.17
2018-02-11T15:26:49.549Z,21.97
2018-02-11T15:29:17.087Z,22.40
2018-02-11T15:31:44.630Z,23.67
2018-02-11T15:34:12.963Z,23.37
2018-02-11T15:36:40.504Z,23.60
2018-02-11T15:39:08.033Z,23.83
2018-02-11T15:41:36.335Z,22.77
2018-02-11T15:44:03.887Z,23.87
2018-02-11T15:46:31.419Z,24.97
2018-02-11T15:48:59.728Z,24.87
2018-02-11T15:51:27.267Z,27.23
2018-02-11T15:53:55.647Z,27.73
2018-02-11T15:56:23.958Z,24.70
2018-02-11T15:58:51.491Z,25.30
2018-02-11T16:01:19.035Z,24.30
2018-02-11T16:03:47.355Z,23.43
2018-02-11T16:06:14.899Z,22.93
2018-02-11T16:08:42.442Z,23.10
2018-02-11T16:11:10.005Z,22.30
2018-02-11T16:13:37.549Z,21.63
2018-02-11T16:16:05.860Z,23.10
2018-02-11T16:18:33.570Z,22.00
2018-02-11T16:21:01.098Z,20.27
2018-02-11T16:23:28.635Z,21.53
2018-02-11T16:25:56.182Z,24.03
2018-02-11T16:28:23.781Z,24.17
2018-02-11T16:30:51.311Z,23.97
2018-02-11T16:33:18.844Z,21.67
2018-02-11T16:35:47.145Z,23.33
2018-02-11T16:38:14.711Z,28.00
2018-02-11T16:40:42.262Z,25.63
2018-02-11T16:43:09.824Z,24.23
2018-02-11T16:45:37.353Z,23.17
2018-02-11T16:48:04.897Z,33.17
2018-02-11T16:50:32.441Z,27.47
2018-02-11T16:52:59.971Z,27.30
2018-02-11T16:55:27.543Z,22.23
2018-02-11T16:57:55.060Z,24.07
2018-02-11T17:00:23.351Z,25.20
2018-02-11T17:02:50.976Z,22.67
2018-02-11T17:05:18.441Z,21.17
2018-02-11T17:07:45.986Z,20.33
2018-02-11T17:10:13.527Z,21.53
2018-02-11T17:12:41.067Z,23.80
2018-02-11T17:15:08.583Z,23.33
2018-02-11T17:17:36.230Z,29.50
2018-02-11T17:20:03.819Z,31.47
2018-02-11T17:22:31.365Z,28.67
2018-02-11T17:24:58.911Z,26.13
2018-02-11T17:27:26.447Z,22.53
2018-02-11T17:29:53.993Z,24.77
2018-02-11T17:32:21.533Z,22.33
2018-02-11T17:34:49.075Z,24.33
2018-02-11T17:37:16.618Z,22.87
2018-02-11T17:39:44.937Z,21.33
2018-02-11T17:42:12.491Z,23.07
2018-02-11T17:44:40.031Z,22.23
2018-02-11T17:47:07.639Z,22.77
2018-02-11T17:49:35.206Z,21.03
2018-02-11T17:52:02.723Z,22.50
2018-02-11T17:54:30.261Z,20.93
2018-02-11T17:56:58.559Z,22.50
2018-02-11T17:59:26.109Z,23.47
2018-02-11T18:01:53.668Z,22.80
2018-02-11T18:04:21.963Z,21.33
2018-02-11T18:06:49.493Z,21.97
2018-02-11T18:09:17.041Z,23.60
2018-02-11T18:11:45.347Z,25.13
2018-02-11T18:14:12.877Z,21.73
2018-02-11T18:16:40.441Z,21.13
2018-02-11T18:19:07.997Z,19.67
2018-02-11T18:21:35.529Z,21.73
2018-02-11T18:24:03.083Z,19.60
2018-02-11T18:26:30.627Z,25.57
2018-02-11T18:28:58.155Z,24.10
2018-02-11T18:31:26.445Z,22.13
2018-02-11T18:33:53.959Z,20.93
2018-02-11T18:36:21.463Z,20.67
2018-02-11T18:38:48.989Z,23.37
2018-02-11T18:41:16.488Z,21.93
2018-02-11T18:43:43.993Z,22.13
2018-02-11T18:46:11.509Z,30.07
2018-02-11T18:48:39.017Z,25.03
2018-02-11T18:51:07.339Z,23.27
2018-02-11T18:53:34.882Z,22.77
2018-02-11T18:56:02.407Z,21.70
2018-02-11T18:58:29.933Z,23.27
2018-02-11T19:00:57.497Z,29.13
2018-02-11T19:03:25.030Z,22.60
2018-02-11T19:05:52.552Z,21.60
2018-02-11T19:08:20.090Z,21.30
2018-02-11T19:10:47.624Z,21.80
2018-02-11T19:13:15.135Z,20.53
2018-02-11T19:15:43.423Z,22.80
2018-02-11T19:18:10.983Z,21.47
2018-02-11T19:20:39.268Z,25.97
2018-02-11T19:23:06.835Z,21.77
2018-02-11T19:25:34.382Z,23.30
2018-02-11T19:28:01.923Z,23.63
2018-02-11T19:30:29.938Z,23.43
2018-02-11T19:32:57.492Z,26.67
2018-02-11T19:35:25.024Z,25.63
2018-02-11T19:37:52.575Z,27.33
2018-02-11T19:40:20.951Z,33.67
2018-02-11T19:42:48.467Z,33.20
2018-02-11T19:45:15.995Z,29.67
2018-02-11T19:47:43.507Z,29.70
2018-02-11T19:50:11.045Z,34.93
2018-02-11T19:52:38.547Z,38.93
2018-02-11T19:55:06.075Z,34.73
2018-02-11T19:57:33.586Z,35.17
2018-02-11T20:00:01.139Z,27.50
2018-02-11T20:02:28.697Z,26.53
2018-02-11T20:04:56.211Z,22.37
2018-02-11T20:07:23.864Z,21.63
2018-02-11T20:09:51.379Z,20.40
2018-02-11T20:12:18.887Z,20.40
2018-02-11T20:14:46.438Z,21.30
2018-02-11T20:17:13.936Z,22.73
2018-02-11T20:19:41.459Z,24.83
2018-02-11T20:22:08.981Z,30.37
2018-02-11T20:24:36.512Z,34.33
2018-02-11T20:27:04.041Z,29.77
2018-02-11T20:29:31.609Z,24.10
2018-02-11T20:31:59.141Z,22.27
2018-02-11T20:34:26.844Z,21.37
2018-02-11T20:36:54.372Z,21.43
2018-02-11T20:39:21.895Z,20.83
2018-02-11T20:41:49.428Z,21.30
2018-02-11T20:44:17.739Z,20.27
2018-02-11T20:46:45.254Z,22.33
2018-02-11T20:49:13.567Z,22.33
2018-02-11T20:51:41.139Z,22.20
2018-02-11T20:54:08.663Z,22.27
2018-02-11T20:56:36.215Z,23.23
2018-02-11T20:59:03.748Z,21.30
2018-02-11T21:01:31.267Z,22.60
2018-02-11T21:03:58.770Z,21.17
2018-02-11T21:06:26.345Z,21.83
2018-02-11T21:08:54.641Z,20.93
2018-02-11T21:11:22.163Z,22.90
2018-02-11T21:13:49.687Z,23.27
2018-02-11T21:16:17.339Z,23.90
2018-02-11T21:18:44.883Z,21.90
2018-02-11T21:21:13.179Z,21.77
2018-02-11T21:23:40.724Z,22.43
2018-02-11T21:26:08.309Z,21.07
2018-02-11T21:28:36.473Z,21.73
2018-02-11T21:31:04.011Z,22.10
2018-02-11T21:33:31.850Z,21.90
2018-02-11T21:35:59.518Z,23.97
2018-02-11T21:38:27.247Z,21.63
2018-02-11T21:40:55.192Z,23.77
2018-02-11T21:43:22.954Z,23.37
2018-02-11T21:45:50.511Z,25.10
2018-02-11T21:48:18.111Z,24.13
2018-02-11T21:50:45.630Z,22.53
2018-02-11T21:53:13.146Z,23.07
2018-02-11T21:55:40.654Z,27.57
2018-02-11T21:58:08.191Z,25.27
2018-02-11T22:00:36.473Z,24.97
2018-02-11T22:03:04.767Z,24.97
2018-02-11T22:05:32.286Z,25.33
2018-02-11T22:07:59.820Z,23.27
2018-02-11T22:10:27.337Z,24.17
2018-02-11T22:12:54.880Z,23.43
2018-02-11T22:15:23.165Z,23.47
2018-02-11T22:17:50.675Z,24.00
2018-02-11T22:20:18.221Z,22.20
2018-02-11T22:22:45.726Z,23.53
2018-02-11T22:25:13.243Z,23.77
2018-02-11T22:27:40.771Z,23.53
2018-02-11T22:30:08.284Z,22.43
2018-02-11T22:32:35.803Z,22.43
2018-02-11T22:35:03.330Z,23.73
2018-02-11T22:37:31.608Z,23.37
2018-02-11T22:39:59.118Z,24.23
2018-02-11T22:42:26.623Z,22.63
2018-02-11T22:44:54.895Z,23.67
2018-02-11T22:47:23.171Z,23.57
2018-02-11T22:49:51.457Z,22.50
2018-02-11T22:52:18.969Z,23.50
2018-02-11T22:54:46.471Z,24.30
2018-02-11T22:57:13.985Z,24.30
2018-02-11T22:59:41.498Z,23.40
2018-02-11T23:02:09.007Z,21.63
2018-02-11T23:04:36.521Z,22.40
2018-02-11T23:07:04.035Z,23.77
2018-02-11T23:09:31.549Z,22.30
2018-02-11T23:11:59.079Z,22.57
2018-02-11T23:14:26.590Z,24.23
2018-02-11T23:16:54.110Z,22.63
2018-02-11T23:19:21.628Z,22.47
2018-02-11T23:21:49.123Z,21.67
2018-02-11T23:24:16.644Z,22.33
2018-02-11T23:26:44.158Z,23.70
2018-02-11T23:29:11.675Z,23.77
2018-02-11T23:31:39.960Z,23.43
2018-02-11T23:34:08.232Z,23.40
2018-02-11T23:36:36.500Z,22.83
2018-02-11T23:39:04.008Z,22.00
2018-02-11T23:41:31.528Z,23.80
2018-02-11T23:43:59.047Z,22.00
2018-02-11T23:46:26.561Z,22.43
2018-02-11T23:48:54.099Z,23.77
2018-02-11T23:51:22.385Z,23.50
2018-02-11T23:53:49.901Z,22.27
2018-02-11T23:56:17.431Z,23.13
2018-02-11T23:58:44.930Z,23.90
